sensor_id;sensor_type;location;lat;lon;timestamp;pressure;altitude;pressure_sealevel;temperature;humidity
66398;BME280;54877;51.504;3.894;2023-11-19T00:01:25;100947.59;;;15.51;78.56
66398;BME280;54877;51.504;3.894;2023-11-19T00:03:50;100951.59;;;15.44;78.67
66398;BME280;54877;51.504;3.894;2023-11-19T00:06:15;100948.66;;;15.49;78.48
66398;BME280;54877;51.504;3.894;2023-11-19T00:08:41;100931.31;;;15.42;78.26
66398;BME280;54877;51.504;3.894;2023-11-19T00:11:08;100930.72;;;15.51;77.74
66398;BME280;54877;51.504;3.894;2023-11-19T00:13:33;100924.91;;;15.44;77.73
66398;BME280;54877;51.504;3.894;2023-11-19T00:15:58;100933.03;;;15.43;77.61
66398;BME280;54877;51.504;3.894;2023-11-19T00:18:24;100925.56;;;15.35;77.74
66398;BME280;54877;51.504;3.894;2023-11-19T00:20:49;100934.63;;;15.33;77.46
66398;BME280;54877;51.504;3.894;2023-11-19T00:23:14;100940.31;;;15.41;77.15
66398;BME280;54877;51.504;3.894;2023-11-19T00:25:39;100945.44;;;15.44;77.20
66398;BME280;54877;51.504;3.894;2023-11-19T00:28:05;100943.38;;;15.35;77.46
66398;BME280;54877;51.504;3.894;2023-11-19T00:30:30;100953.72;;;15.39;76.91
66398;BME280;54877;51.504;3.894;2023-11-19T00:32:56;100938.25;;;15.44;76.70
66398;BME280;54877;51.504;3.894;2023-11-19T00:35:21;100943.50;;;15.46;76.50
66398;BME280;54877;51.504;3.894;2023-11-19T00:37:46;100952.88;;;15.39;76.53
66398;BME280;54877;51.504;3.894;2023-11-19T00:40:12;100950.84;;;15.42;76.40
66398;BME280;54877;51.504;3.894;2023-11-19T00:42:38;100947.31;;;15.29;76.49
66398;BME280;54877;51.504;3.894;2023-11-19T00:45:03;100951.03;;;15.26;76.41
66398;BME280;54877;51.504;3.894;2023-11-19T00:47:33;100948.38;;;15.39;75.93
66398;BME280;54877;51.504;3.894;2023-11-19T00:49:58;100938.34;;;15.30;76.41
66398;BME280;54877;51.504;3.894;2023-11-19T00:52:23;100926.38;;;15.36;76.11
66398;BME280;54877;51.504;3.894;2023-11-19T00:54:51;100930.25;;;15.32;76.18
66398;BME280;54877;51.504;3.894;2023-11-19T00:57:17;100924.91;;;15.32;76.05
66398;BME280;54877;51.504;3.894;2023-11-19T00:59:42;100915.97;;;15.33;76.09
66398;BME280;54877;51.504;3.894;2023-11-19T01:02:07;100921.69;;;15.26;76.35
66398;BME280;54877;51.504;3.894;2023-11-19T01:04:33;100923.31;;;15.29;76.08
66398;BME280;54877;51.504;3.894;2023-11-19T01:07:01;100908.25;;;15.28;75.86
66398;BME280;54877;51.504;3.894;2023-11-19T01:09:26;100929.25;;;15.20;75.97
66398;BME280;54877;51.504;3.894;2023-11-19T01:11:51;100936.19;;;15.22;75.79
66398;BME280;54877;51.504;3.894;2023-11-19T01:14:17;100914.72;;;15.11;76.18
66398;BME280;54877;51.504;3.894;2023-11-19T01:16:42;100921.84;;;15.11;76.19
66398;BME280;54877;51.504;3.894;2023-11-19T01:19:07;100920.94;;;15.24;75.91
66398;BME280;54877;51.504;3.894;2023-11-19T01:21:33;100920.19;;;15.22;76.01
66398;BME280;54877;51.504;3.894;2023-11-19T01:23:58;100917.19;;;15.14;76.14
66398;BME280;54877;51.504;3.894;2023-11-19T01:26:24;100914.84;;;15.10;75.94
66398;BME280;54877;51.504;3.894;2023-11-19T01:28:50;100926.13;;;15.13;75.82
66398;BME280;54877;51.504;3.894;2023-11-19T01:31:17;100930.59;;;15.00;75.80
66398;BME280;54877;51.504;3.894;2023-11-19T01:33:43;100936.13;;;14.97;76.06
66398;BME280;54877;51.504;3.894;2023-11-19T01:36:08;100936.75;;;14.88;76.21
66398;BME280;54877;51.504;3.894;2023-11-19T01:38:34;100924.16;;;14.90;76.06
66398;BME280;54877;51.504;3.894;2023-11-19T01:40:59;100930.25;;;14.92;75.63
66398;BME280;54877;51.504;3.894;2023-11-19T01:43:37;100918.09;;;14.88;75.63
66398;BME280;54877;51.504;3.894;2023-11-19T01:46:02;100924.75;;;14.81;75.85
66398;BME280;54877;51.504;3.894;2023-11-19T01:48:32;100922.59;;;14.74;75.98
66398;BME280;54877;51.504;3.894;2023-11-19T01:50:59;100914.59;;;14.74;75.65
66398;BME280;54877;51.504;3.894;2023-11-19T01:53:25;100912.50;;;14.79;75.51
66398;BME280;54877;51.504;3.894;2023-11-19T01:55:50;100915.75;;;14.69;75.47
66398;BME280;54877;51.504;3.894;2023-11-19T01:58:17;100914.94;;;14.69;75.52
66398;BME280;54877;51.504;3.894;2023-11-19T02:00:44;100917.13;;;14.62;75.80
66398;BME280;54877;51.504;3.894;2023-11-19T02:03:09;100912.47;;;14.66;75.28
66398;BME280;54877;51.504;3.894;2023-11-19T02:05:34;100918.13;;;14.74;74.99
66398;BME280;54877;51.504;3.894;2023-11-19T02:08:00;100916.06;;;14.65;74.72
66398;BME280;54877;51.504;3.894;2023-11-19T02:10:26;100920.25;;;14.69;74.55
66398;BME280;54877;51.504;3.894;2023-11-19T02:12:51;100913.88;;;14.72;74.06
66398;BME280;54877;51.504;3.894;2023-11-19T02:15:16;100901.78;;;14.66;74.08
66398;BME280;54877;51.504;3.894;2023-11-19T02:17:44;100913.88;;;14.72;73.41
66398;BME280;54877;51.504;3.894;2023-11-19T02:20:09;100924.91;;;14.65;73.30
66398;BME280;54877;51.504;3.894;2023-11-19T02:22:36;100915.31;;;14.63;73.45
66398;BME280;54877;51.504;3.894;2023-11-19T02:25:04;100911.03;;;14.60;73.59
66398;BME280;54877;51.504;3.894;2023-11-19T02:27:44;100903.34;;;14.56;73.61
66398;BME280;54877;51.504;3.894;2023-11-19T02:30:11;100908.09;;;14.51;73.81
66398;BME280;54877;51.504;3.894;2023-11-19T02:32:36;100917.72;;;14.53;73.98
66398;BME280;54877;51.504;3.894;2023-11-19T02:35:03;100915.03;;;14.53;73.96
66398;BME280;54877;51.504;3.894;2023-11-19T02:37:29;100920.09;;;14.58;73.94
66398;BME280;54877;51.504;3.894;2023-11-19T02:39:54;100894.78;;;14.51;74.29
66398;BME280;54877;51.504;3.894;2023-11-19T02:42:20;100903.72;;;14.50;74.44
66398;BME280;54877;51.504;3.894;2023-11-19T02:44:45;100901.63;;;14.55;74.42
66398;BME280;54877;51.504;3.894;2023-11-19T02:47:11;100909.31;;;14.59;74.66
66398;BME280;54877;51.504;3.894;2023-11-19T02:49:36;100897.13;;;14.55;75.03
66398;BME280;54877;51.504;3.894;2023-11-19T02:52:02;100905.63;;;14.48;75.24
66398;BME280;54877;51.504;3.894;2023-11-19T02:54:28;100899.72;;;14.57;75.02
66398;BME280;54877;51.504;3.894;2023-11-19T02:56:54;100902.19;;;14.60;74.97
66398;BME280;54877;51.504;3.894;2023-11-19T02:59:24;100892.69;;;14.56;74.92
66398;BME280;54877;51.504;3.894;2023-11-19T03:01:53;100903.13;;;14.59;74.92
66398;BME280;54877;51.504;3.894;2023-11-19T03:04:18;100894.59;;;14.54;74.78
66398;BME280;54877;51.504;3.894;2023-11-19T03:06:45;100905.78;;;14.59;74.76
66398;BME280;54877;51.504;3.894;2023-11-19T03:09:10;100901.63;;;14.55;74.85
66398;BME280;54877;51.504;3.894;2023-11-19T03:11:35;100903.69;;;14.64;74.52
66398;BME280;54877;51.504;3.894;2023-11-19T03:14:01;100899.72;;;14.57;74.52
66398;BME280;54877;51.504;3.894;2023-11-19T03:16:27;100903.34;;;14.56;74.14
66398;BME280;54877;51.504;3.894;2023-11-19T03:18:53;100900.13;;;14.51;73.75
66398;BME280;54877;51.504;3.894;2023-11-19T03:21:18;100901.28;;;14.47;73.38
66398;BME280;54877;51.504;3.894;2023-11-19T03:23:43;100900.44;;;14.46;73.02
66398;BME280;54877;51.504;3.894;2023-11-19T03:26:10;100906.44;;;14.36;73.15
66398;BME280;54877;51.504;3.894;2023-11-19T03:28:35;100895.13;;;14.32;72.93
66398;BME280;54877;51.504;3.894;2023-11-19T03:31:01;100900.13;;;14.23;73.35
66398;BME280;54877;51.504;3.894;2023-11-19T03:33:26;100909.75;;;14.25;73.36
66398;BME280;54877;51.504;3.894;2023-11-19T03:35:52;100912.03;;;14.31;73.10
66398;BME280;54877;51.504;3.894;2023-11-19T03:38:18;100925.16;;;14.20;73.41
66398;BME280;54877;51.504;3.894;2023-11-19T03:40:43;100918.50;;;14.27;73.17
66398;BME280;54877;51.504;3.894;2023-11-19T03:43:08;100920.69;;;14.21;73.43
66398;BME280;54877;51.504;3.894;2023-11-19T03:45:34;100922.69;;;14.17;73.76
66398;BME280;54877;51.504;3.894;2023-11-19T03:48:01;100918.69;;;14.24;73.26
66398;BME280;54877;51.504;3.894;2023-11-19T03:50:26;100917.16;;;14.20;73.17
66398;BME280;54877;51.504;3.894;2023-11-19T03:52:51;100919.56;;;14.25;72.74
66398;BME280;54877;51.504;3.894;2023-11-19T03:55:17;100924.69;;;14.28;72.48
66398;BME280;54877;51.504;3.894;2023-11-19T03:57:42;100924.69;;;14.28;72.14
66398;BME280;54877;51.504;3.894;2023-11-19T04:00:08;100920.13;;;14.16;72.65
66398;BME280;54877;51.504;3.894;2023-11-19T04:02:38;100929.34;;;14.24;72.33
66398;BME280;54877;51.504;3.894;2023-11-19T04:05:04;100932.50;;;14.17;72.88
66398;BME280;54877;51.504;3.894;2023-11-19T04:07:30;100928.13;;;14.16;72.97
66398;BME280;54877;51.504;3.894;2023-11-19T04:09:55;100936.88;;;14.18;73.04
66398;BME280;54877;51.504;3.894;2023-11-19T04:12:20;100930.41;;;14.07;73.14
66398;BME280;54877;51.504;3.894;2023-11-19T04:14:47;100926.03;;;14.06;73.19
66398;BME280;54877;51.504;3.894;2023-11-19T04:17:12;100938.22;;;14.25;72.87
66398;BME280;54877;51.504;3.894;2023-11-19T04:19:37;100928.00;;;14.17;72.71
66398;BME280;54877;51.504;3.894;2023-11-19T04:22:03;100931.53;;;14.18;72.75
66398;BME280;54877;51.504;3.894;2023-11-19T04:24:29;100932.28;;;14.20;72.86
66398;BME280;54877;51.504;3.894;2023-11-19T04:26:54;100929.63;;;14.20;72.74
66398;BME280;54877;51.504;3.894;2023-11-19T04:29:19;100924.53;;;14.17;72.80
66398;BME280;54877;51.504;3.894;2023-11-19T04:31:45;100933.28;;;14.04;73.31
66398;BME280;54877;51.504;3.894;2023-11-19T04:34:10;100942.88;;;14.07;73.61
66398;BME280;54877;51.504;3.894;2023-11-19T04:36:36;100944.28;;;14.12;73.30
66398;BME280;54877;51.504;3.894;2023-11-19T04:39:02;100941.94;;;14.08;73.36
66398;BME280;54877;51.504;3.894;2023-11-19T04:41:27;100939.53;;;14.03;73.28
66398;BME280;54877;51.504;3.894;2023-11-19T04:43:53;100942.19;;;14.03;73.53
66398;BME280;54877;51.504;3.894;2023-11-19T04:46:18;100951.72;;;14.22;72.96
66398;BME280;54877;51.504;3.894;2023-11-19T04:48:44;100941.81;;;14.09;73.05
66398;BME280;54877;51.504;3.894;2023-11-19T04:51:09;100938.41;;;14.07;73.32
66398;BME280;54877;51.504;3.894;2023-11-19T04:53:34;100940.09;;;14.08;73.13
66398;BME280;54877;51.504;3.894;2023-11-19T04:56:00;100938.22;;;14.10;73.13
66398;BME280;54877;51.504;3.894;2023-11-19T04:58:25;100942.56;;;13.97;73.42
66398;BME280;54877;51.504;3.894;2023-11-19T05:00:50;100941.44;;;14.16;72.75
66398;BME280;54877;51.504;3.894;2023-11-19T05:03:15;100942.38;;;14.14;73.03
66398;BME280;54877;51.504;3.894;2023-11-19T05:05:41;100944.09;;;14.01;73.53
66398;BME280;54877;51.504;3.894;2023-11-19T05:08:06;100944.09;;;14.01;73.65
66398;BME280;54877;51.504;3.894;2023-11-19T05:10:31;100947.81;;;14.13;73.37
66398;BME280;54877;51.504;3.894;2023-11-19T05:12:56;100949.63;;;13.98;73.78
66398;BME280;54877;51.504;3.894;2023-11-19T05:15:22;100946.94;;;13.98;73.67
66398;BME280;54877;51.504;3.894;2023-11-19T05:17:47;100941.75;;;13.97;73.43
66398;BME280;54877;51.504;3.894;2023-11-19T05:20:13;100929.94;;;13.87;73.19
66398;BME280;54877;51.504;3.894;2023-11-19T05:22:41;100948.94;;;13.95;73.08
66398;BME280;54877;51.504;3.894;2023-11-19T05:25:07;100934.31;;;14.02;72.73
66398;BME280;54877;51.504;3.894;2023-11-19T05:27:33;100933.28;;;14.04;72.16
66398;BME280;54877;51.504;3.894;2023-11-19T05:29:58;100929.25;;;14.11;71.86
66398;BME280;54877;51.504;3.894;2023-11-19T05:32:23;100929.56;;;13.93;72.15
66398;BME280;54877;51.504;3.894;2023-11-19T05:34:49;100939.91;;;14.11;71.73
66398;BME280;54877;51.504;3.894;2023-11-19T05:37:14;100946.56;;;14.04;72.00
66398;BME280;54877;51.504;3.894;2023-11-19T05:39:39;100949.06;;;14.07;71.63
66398;BME280;54877;51.504;3.894;2023-11-19T05:42:04;100944.28;;;13.98;72.00
66398;BME280;54877;51.504;3.894;2023-11-19T05:44:30;100939.34;;;14.06;71.71
66398;BME280;54877;51.504;3.894;2023-11-19T05:46:55;100936.69;;;14.06;71.69
66398;BME280;54877;51.504;3.894;2023-11-19T05:49:20;100926.78;;;14.08;71.35
66398;BME280;54877;51.504;3.894;2023-11-19T05:51:45;100932.09;;;14.08;71.26
66398;BME280;54877;51.504;3.894;2023-11-19T05:54:11;100924.13;;;14.08;71.13
66398;BME280;54877;51.504;3.894;2023-11-19T05:56:36;100931.28;;;13.94;71.55
66398;BME280;54877;51.504;3.894;2023-11-19T05:59:01;100930.13;;;13.84;71.78
66398;BME280;54877;51.504;3.894;2023-11-19T06:01:29;100916.34;;;13.77;71.83
66398;BME280;54877;51.504;3.894;2023-11-19T06:03:54;100921.66;;;13.63;72.19
66398;BME280;54877;51.504;3.894;2023-11-19T06:06:19;100937.81;;;13.60;72.31
66398;BME280;54877;51.504;3.894;2023-11-19T06:08:45;100939.34;;;13.64;72.15
66398;BME280;54877;51.504;3.894;2023-11-19T06:11:10;100938.75;;;13.59;72.17
66398;BME280;54877;51.504;3.894;2023-11-19T06:13:43;100928.09;;;13.59;72.21
66398;BME280;54877;51.504;3.894;2023-11-19T06:16:08;100932.13;;;13.66;72.10
66398;BME280;54877;51.504;3.894;2023-11-19T06:18:33;100920.72;;;13.64;72.06
66398;BME280;54877;51.504;3.894;2023-11-19T06:20:59;100930.13;;;13.70;71.85
66398;BME280;54877;51.504;3.894;2023-11-19T06:23:24;100917.84;;;13.53;72.20
66398;BME280;54877;51.504;3.894;2023-11-19T06:25:49;100921.09;;;13.58;72.06
66398;BME280;54877;51.504;3.894;2023-11-19T06:28:14;100922.38;;;13.51;72.40
66398;BME280;54877;51.504;3.894;2023-11-19T06:30:40;100919.88;;;13.34;73.34
66398;BME280;54877;51.504;3.894;2023-11-19T06:33:06;100927.09;;;13.32;73.33
66398;BME280;54877;51.504;3.894;2023-11-19T06:35:32;100935.28;;;13.43;72.89
66398;BME280;54877;51.504;3.894;2023-11-19T06:38:01;100949.75;;;13.39;72.91
66398;BME280;54877;51.504;3.894;2023-11-19T06:40:26;100945.94;;;13.43;72.67
66398;BME280;54877;51.504;3.894;2023-11-19T06:42:52;100953.44;;;13.50;72.58
66398;BME280;54877;51.504;3.894;2023-11-19T06:45:17;100947.13;;;13.53;72.40
66398;BME280;54877;51.504;3.894;2023-11-19T06:47:42;100943.84;;;13.48;72.30
66398;BME280;54877;51.504;3.894;2023-11-19T06:50:07;100960.19;;;13.42;72.61
66398;BME280;54877;51.504;3.894;2023-11-19T06:52:34;100960.13;;;13.58;72.15
66398;BME280;54877;51.504;3.894;2023-11-19T06:54:59;100957.53;;;13.56;71.96
66398;BME280;54877;51.504;3.894;2023-11-19T06:57:24;100957.94;;;13.50;72.42
66398;BME280;54877;51.504;3.894;2023-11-19T06:59:50;100962.06;;;13.40;72.63
66398;BME280;54877;51.504;3.894;2023-11-19T07:02:15;100957.25;;;13.46;72.24
66398;BME280;54877;51.504;3.894;2023-11-19T07:04:40;100957.91;;;13.36;72.65
66398;BME280;54877;51.504;3.894;2023-11-19T07:07:05;100960.84;;;13.45;72.54
66398;BME280;54877;51.504;3.894;2023-11-19T07:09:31;100962.84;;;13.42;72.64
66398;BME280;54877;51.504;3.894;2023-11-19T07:11:56;100967.56;;;13.37;72.76
66398;BME280;54877;51.504;3.894;2023-11-19T07:14:22;100970.00;;;13.26;72.87
66398;BME280;54877;51.504;3.894;2023-11-19T07:16:48;100976.75;;;13.17;73.32
66398;BME280;54877;51.504;3.894;2023-11-19T07:19:15;100977.22;;;13.24;73.11
66398;BME280;54877;51.504;3.894;2023-11-19T07:21:43;100970.63;;;13.31;72.92
66398;BME280;54877;51.504;3.894;2023-11-19T07:24:11;100979.94;;;13.38;72.53
66398;BME280;54877;51.504;3.894;2023-11-19T07:26:42;100988.84;;;13.37;72.51
66398;BME280;54877;51.504;3.894;2023-11-19T07:29:08;100979.56;;;13.44;72.41
66398;BME280;54877;51.504;3.894;2023-11-19T07:31:33;100984.91;;;13.44;72.27
66398;BME280;54877;51.504;3.894;2023-11-19T07:33:59;100977.09;;;13.41;72.31
66398;BME280;54877;51.504;3.894;2023-11-19T07:36:24;100974.63;;;13.38;72.39
66398;BME280;54877;51.504;3.894;2023-11-19T07:38:49;100975.19;;;13.43;72.35
66398;BME280;54877;51.504;3.894;2023-11-19T07:41:15;100974.25;;;13.44;72.28
66398;BME280;54877;51.504;3.894;2023-11-19T07:43:42;100976.97;;;13.42;72.28
66398;BME280;54877;51.504;3.894;2023-11-19T07:46:11;100972.72;;;13.40;72.71
66398;BME280;54877;51.504;3.894;2023-11-19T07:48:38;100980.88;;;13.37;72.61
66398;BME280;54877;51.504;3.894;2023-11-19T07:51:03;100978.72;;;13.43;72.46
66398;BME280;54877;51.504;3.894;2023-11-19T07:53:28;100975.59;;;13.51;72.21
66398;BME280;54877;51.504;3.894;2023-11-19T07:55:53;100977.66;;;13.46;72.24
66398;BME280;54877;51.504;3.894;2023-11-19T07:58:19;100980.03;;;13.50;72.22
66398;BME280;54877;51.504;3.894;2023-11-19T08:00:44;100970.84;;;13.42;72.50
66398;BME280;54877;51.504;3.894;2023-11-19T08:03:09;100976.81;;;13.45;72.43
66398;BME280;54877;51.504;3.894;2023-11-19T08:05:35;100972.53;;;13.43;72.33
66398;BME280;54877;51.504;3.894;2023-11-19T08:08:01;100968.25;;;13.40;72.58
66398;BME280;54877;51.504;3.894;2023-11-19T08:10:26;100981.59;;;13.54;72.21
66398;BME280;54877;51.504;3.894;2023-11-19T08:12:52;100976.28;;;13.54;72.21
66398;BME280;54877;51.504;3.894;2023-11-19T08:15:17;100971.13;;;13.51;72.34
66398;BME280;54877;51.504;3.894;2023-11-19T08:17:42;100977.50;;;13.49;72.52
66398;BME280;54877;51.504;3.894;2023-11-19T08:20:08;100983.50;;;13.52;72.54
66398;BME280;54877;51.504;3.894;2023-11-19T08:22:35;100985.50;;;13.63;72.24
66398;BME280;54877;51.504;3.894;2023-11-19T08:25:01;100987.22;;;13.64;72.30
66398;BME280;54877;51.504;3.894;2023-11-19T08:27:26;100980.78;;;13.82;71.62
66398;BME280;54877;51.504;3.894;2023-11-19T08:29:53;100983.53;;;13.81;71.94
66398;BME280;54877;51.504;3.894;2023-11-19T08:32:18;100986.38;;;13.92;71.44
66398;BME280;54877;51.504;3.894;2023-11-19T08:34:44;100981.69;;;13.67;71.85
66398;BME280;54877;51.504;3.894;2023-11-19T08:37:09;100981.28;;;13.89;71.42
66398;BME280;54877;51.504;3.894;2023-11-19T08:39:34;100974.59;;;13.82;71.55
66398;BME280;54877;51.504;3.894;2023-11-19T08:42:02;100978.31;;;13.93;71.48
66398;BME280;54877;51.504;3.894;2023-11-19T08:44:27;100982.09;;;13.89;71.64
66398;BME280;54877;51.504;3.894;2023-11-19T08:46:53;100981.53;;;13.84;71.86
66398;BME280;54877;51.504;3.894;2023-11-19T08:49:18;100990.59;;;13.96;71.35
66398;BME280;54877;51.504;3.894;2023-11-19T08:51:43;100989.72;;;13.81;71.93
66398;BME280;54877;51.504;3.894;2023-11-19T08:54:10;100996.03;;;13.94;71.21
66398;BME280;54877;51.504;3.894;2023-11-19T08:56:36;100990.69;;;13.94;71.54
66398;BME280;54877;51.504;3.894;2023-11-19T08:59:01;100991.16;;;14.01;71.51
66398;BME280;54877;51.504;3.894;2023-11-19T09:01:27;100979.56;;;14.02;71.27
66398;BME280;54877;51.504;3.894;2023-11-19T09:03:52;100983.38;;;14.12;71.02
66398;BME280;54877;51.504;3.894;2023-11-19T09:06:17;100984.22;;;13.98;71.33
66398;BME280;54877;51.504;3.894;2023-11-19T09:08:43;100977.59;;;14.05;71.20
66398;BME280;54877;51.504;3.894;2023-11-19T09:11:08;100987.63;;;14.14;71.17
66398;BME280;54877;51.504;3.894;2023-11-19T09:13:34;100978.41;;;14.20;71.06
66398;BME280;54877;51.504;3.894;2023-11-19T09:15:59;100986.13;;;14.25;70.91
66398;BME280;54877;51.504;3.894;2023-11-19T09:18:28;100994.78;;;14.28;70.90
66398;BME280;54877;51.504;3.894;2023-11-19T09:20:53;100995.19;;;14.22;71.08
66398;BME280;54877;51.504;3.894;2023-11-19T09:23:19;100994.91;;;14.41;70.82
66398;BME280;54877;51.504;3.894;2023-11-19T09:25:44;100998.31;;;14.43;70.62
66398;BME280;54877;51.504;3.894;2023-11-19T09:28:10;100992.41;;;14.52;70.46
66398;BME280;54877;51.504;3.894;2023-11-19T09:30:35;100982.41;;;14.55;70.21
66398;BME280;54877;51.504;3.894;2023-11-19T09:33:01;100978.22;;;14.65;69.95
66398;BME280;54877;51.504;3.894;2023-11-19T09:35:26;100972.22;;;14.62;69.63
66398;BME280;54877;51.504;3.894;2023-11-19T09:37:51;100969.75;;;14.59;69.90
66398;BME280;54877;51.504;3.894;2023-11-19T09:40:16;100967.09;;;14.59;69.91
66398;BME280;54877;51.504;3.894;2023-11-19T09:42:43;100969.84;;;14.72;69.62
66398;BME280;54877;51.504;3.894;2023-11-19T09:45:12;100967.56;;;14.65;69.67
66398;BME280;54877;51.504;3.894;2023-11-19T09:47:38;100970.78;;;14.70;69.74
66398;BME280;54877;51.504;3.894;2023-11-19T09:50:04;100976.97;;;14.71;69.59
66398;BME280;54877;51.504;3.894;2023-11-19T09:52:30;100974.31;;;14.71;69.27
66398;BME280;54877;51.504;3.894;2023-11-19T09:54:55;100977.41;;;14.78;69.28
66398;BME280;54877;51.504;3.894;2023-11-19T09:57:20;100980.22;;;14.89;69.26
66398;BME280;54877;51.504;3.894;2023-11-19T09:59:46;100973.19;;;14.88;68.86
66398;BME280;54877;51.504;3.894;2023-11-19T10:02:11;100977.22;;;14.81;68.84
66398;BME280;54877;51.504;3.894;2023-11-19T10:04:37;100985.31;;;14.79;69.42
66398;BME280;54877;51.504;3.894;2023-11-19T10:07:03;100993.22;;;14.66;70.85
66398;BME280;54877;51.504;3.894;2023-11-19T10:09:28;100999.06;;;14.59;71.61
66398;BME280;54877;51.504;3.894;2023-11-19T10:11:54;100995.28;;;14.49;72.07
66398;BME280;54877;51.504;3.894;2023-11-19T10:14:20;100997.00;;;14.36;73.71
66398;BME280;54877;51.504;3.894;2023-11-19T10:16:47;100989.56;;;14.27;74.57
66398;BME280;54877;51.504;3.894;2023-11-19T10:19:18;100995.28;;;14.35;74.65
66398;BME280;54877;51.504;3.894;2023-11-19T10:21:45;100997.84;;;14.36;74.33
66398;BME280;54877;51.504;3.894;2023-11-19T10:24:11;100997.66;;;14.39;74.02
66398;BME280;54877;51.504;3.894;2023-11-19T10:26:36;101007.63;;;14.22;74.11
66398;BME280;54877;51.504;3.894;2023-11-19T10:29:02;100992.81;;;14.32;73.85
66398;BME280;54877;51.504;3.894;2023-11-19T10:31:27;100989.78;;;14.38;73.92
66398;BME280;54877;51.504;3.894;2023-11-19T10:33:52;100992.97;;;14.29;74.11
66398;BME280;54877;51.504;3.894;2023-11-19T10:36:18;100999.06;;;14.45;73.82
66398;BME280;54877;51.504;3.894;2023-11-19T10:38:53;100993.91;;;14.56;73.74
66398;BME280;54877;51.504;3.894;2023-11-19T10:41:28;100994.97;;;14.53;74.22
66398;BME280;54877;51.504;3.894;2023-11-19T10:43:53;100986.72;;;14.58;73.93
66398;BME280;54877;51.504;3.894;2023-11-19T10:46:18;100986.13;;;14.53;73.68
66398;BME280;54877;51.504;3.894;2023-11-19T10:48:48;100974.38;;;14.69;73.48
66398;BME280;54877;51.504;3.894;2023-11-19T10:51:13;100982.84;;;14.76;73.20
66398;BME280;54877;51.504;3.894;2023-11-19T10:53:39;100979.97;;;14.79;73.24
66398;BME280;54877;51.504;3.894;2023-11-19T10:56:10;100976.94;;;14.85;73.12
66398;BME280;54877;51.504;3.894;2023-11-19T10:58:36;100971.59;;;14.85;72.73
66398;BME280;54877;51.504;3.894;2023-11-19T11:01:06;100973.44;;;14.97;72.86
66398;BME280;54877;51.504;3.894;2023-11-19T11:03:36;100966.44;;;15.09;71.96
66398;BME280;54877;51.504;3.894;2023-11-19T11:06:04;100955.69;;;15.10;71.39
66398;BME280;54877;51.504;3.894;2023-11-19T11:08:29;100957.09;;;15.16;71.04
66398;BME280;54877;51.504;3.894;2023-11-19T11:10:55;100954.44;;;15.28;70.95
66398;BME280;54877;51.504;3.894;2023-11-19T11:13:24;100953.19;;;15.34;70.87
66398;BME280;54877;51.504;3.894;2023-11-19T11:15:50;100940.72;;;15.35;70.63
66398;BME280;54877;51.504;3.894;2023-11-19T11:18:16;100934.97;;;15.41;70.04
66398;BME280;54877;51.504;3.894;2023-11-19T11:20:44;100934.09;;;15.40;70.15
66398;BME280;54877;51.504;3.894;2023-11-19T11:28:09;100923.91;;;15.72;69.54
66398;BME280;54877;51.504;3.894;2023-11-19T11:30:51;100905.53;;;15.80;69.10
66398;BME280;54877;51.504;3.894;2023-11-19T11:33:26;100919.97;;;15.90;68.96
66398;BME280;54877;51.504;3.894;2023-11-19T11:35:58;100914.19;;;15.96;68.50
66398;BME280;54877;51.504;3.894;2023-11-19T11:38:27;100901.47;;;15.87;68.42
66398;BME280;54877;51.504;3.894;2023-11-19T11:43:52;100904.03;;;15.88;67.45
66398;BME280;54877;51.504;3.894;2023-11-19T11:49:01;100912.78;;;15.78;67.61
66398;BME280;54877;51.504;3.894;2023-11-19T11:54:07;100938.84;;;15.49;70.41
66398;BME280;54877;51.504;3.894;2023-11-19T11:56:33;100942.56;;;15.47;71.07
66398;BME280;54877;51.504;3.894;2023-11-19T11:58:59;100943.25;;;15.23;72.22
66398;BME280;54877;51.504;3.894;2023-11-19T12:01:25;100936.31;;;15.21;72.45
66398;BME280;54877;51.504;3.894;2023-11-19T12:03:55;100932.25;;;15.15;73.04
66398;BME280;54877;51.504;3.894;2023-11-19T12:06:21;100938.13;;;15.20;73.17
66398;BME280;54877;51.504;3.894;2023-11-19T12:08:46;100929.59;;;15.28;72.77
66398;BME280;54877;51.504;3.894;2023-11-19T12:11:12;100916.66;;;15.09;72.30
66398;BME280;54877;51.504;3.894;2023-11-19T12:13:54;100918.31;;;15.37;71.41
66398;BME280;54877;51.504;3.894;2023-11-19T12:16:27;100919.84;;;15.54;70.19
66398;BME280;54877;51.504;3.894;2023-11-19T12:18:54;100919.09;;;15.52;69.63
66398;BME280;54877;51.504;3.894;2023-11-19T12:21:27;100919.84;;;15.54;68.92
66398;BME280;54877;51.504;3.894;2023-11-19T12:23:52;100910.78;;;15.56;68.68
66398;BME280;54877;51.504;3.894;2023-11-19T12:26:21;100919.50;;;15.58;68.51
66398;BME280;54877;51.504;3.894;2023-11-19T12:28:59;100926.91;;;15.67;68.97
66398;BME280;54877;51.504;3.894;2023-11-19T12:31:25;100925.63;;;15.73;68.33
66398;BME280;54877;51.504;3.894;2023-11-19T12:33:51;100921.56;;;15.67;68.43
66398;BME280;54877;51.504;3.894;2023-11-19T12:36:16;100905.13;;;15.73;68.36
66398;BME280;54877;51.504;3.894;2023-11-19T12:38:42;100914.84;;;15.62;68.35
66398;BME280;54877;51.504;3.894;2023-11-19T12:41:10;100905.84;;;15.50;68.88
66398;BME280;54877;51.504;3.894;2023-11-19T12:43:36;100902.34;;;15.62;68.46
66398;BME280;54877;51.504;3.894;2023-11-19T12:48:46;100879.72;;;15.68;68.48
66398;BME280;54877;51.504;3.894;2023-11-19T12:51:12;100883.44;;;15.65;68.66
66398;BME280;54877;51.504;3.894;2023-11-19T12:53:55;100878.00;;;15.54;67.92
66398;BME280;54877;51.504;3.894;2023-11-19T12:56:22;100889.72;;;15.90;68.04
66398;BME280;54877;51.504;3.894;2023-11-19T12:58:48;100883.75;;;15.86;67.13
66398;BME280;54877;51.504;3.894;2023-11-19T13:01:19;100896.69;;;15.79;66.58